sensor_id;sensor_type;location;lat;lon;timestamp;temperature;humidity
16929;DHT22;8581;47.334;11.190;2023-01-16T00:02:01;-2.40;99.90
16929;DHT22;8581;47.334;11.190;2023-01-16T00:04:33;-2.40;99.90
16929;DHT22;8581;47.334;11.190;2023-01-16T00:07:04;-2.30;99.90
16929;DHT22;8581;47.334;11.190;2023-01-16T00:09:36;-2.20;99.90
16929;DHT22;8581;47.334;11.190;2023-01-16T00:12:07;-2.40;99.90
16929;DHT22;8581;47.334;11.190;2023-01-16T00:14:39;-2.60;99.90
16929;DHT22;8581;47.334;11.190;2023-01-16T00:17:11;-2.70;99.90
16929;DHT22;8581;47.334;11.190;2023-01-16T00:19:42;-2.70;99.90
16929;DHT22;8581;47.334;11.190;2023-01-16T00:22:14;-2.70;99.90
16929;DHT22;8581;47.334;11.190;2023-01-16T00:24:46;-2.70;99.90
16929;DHT22;8581;47.334;11.190;2023-01-16T00:27:17;-2.60;99.90
16929;DHT22;8581;47.334;11.190;2023-01-16T00:29:49;-2.50;99.90
16929;DHT22;8581;47.334;11.190;2023-01-16T00:32:20;-2.50;99.90
16929;DHT22;8581;47.334;11.190;2023-01-16T00:34:52;-2.50;99.90
16929;DHT22;8581;47.334;11.190;2023-01-16T00:37:24;-2.40;99.90
16929;DHT22;8581;47.334;11.190;2023-01-16T00:39:55;-2.40;99.90
16929;DHT22;8581;47.334;11.190;2023-01-16T00:42:27;-2.50;99.90
16929;DHT22;8581;47.334;11.190;2023-01-16T00:44:58;-2.60;99.90
16929;DHT22;8581;47.334;11.190;2023-01-16T00:47:30;-2.60;99.90
16929;DHT22;8581;47.334;11.190;2023-01-16T00:50:02;-2.70;99.90
16929;DHT22;8581;47.334;11.190;2023-01-16T00:52:33;-2.70;99.90
16929;DHT22;8581;47.334;11.190;2023-01-16T00:55:05;-2.70;99.90
16929;DHT22;8581;47.334;11.190;2023-01-16T00:57:37;-2.70;99.90
16929;DHT22;8581;47.334;11.190;2023-01-16T01:00:10;-2.70;99.90
16929;DHT22;8581;47.334;11.190;2023-01-16T01:02:42;-2.80;99.90
16929;DHT22;8581;47.334;11.190;2023-01-16T01:05:13;-2.80;99.90
16929;DHT22;8581;47.334;11.190;2023-01-16T01:07:45;-2.80;99.90
16929;DHT22;8581;47.334;11.190;2023-01-16T01:10:17;-2.90;99.90
16929;DHT22;8581;47.334;11.190;2023-01-16T01:12:50;-3.00;99.90
16929;DHT22;8581;47.334;11.190;2023-01-16T01:15:20;-2.90;99.90
16929;DHT22;8581;47.334;11.190;2023-01-16T01:17:51;-3.00;99.90
16929;DHT22;8581;47.334;11.190;2023-01-16T01:20:23;-2.80;99.90
16929;DHT22;8581;47.334;11.190;2023-01-16T01:22:55;-2.90;99.90
16929;DHT22;8581;47.334;11.190;2023-01-16T01:25:26;-2.90;99.90
16929;DHT22;8581;47.334;11.190;2023-01-16T01:27:58;-2.90;99.90
16929;DHT22;8581;47.334;11.190;2023-01-16T01:30:29;-2.90;99.90
16929;DHT22;8581;47.334;11.190;2023-01-16T01:33:01;-2.90;99.90
16929;DHT22;8581;47.334;11.190;2023-01-16T01:35:32;-2.90;99.90
16929;DHT22;8581;47.334;11.190;2023-01-16T01:38:04;-2.70;99.90
16929;DHT22;8581;47.334;11.190;2023-01-16T01:40:36;-2.80;99.90
16929;DHT22;8581;47.334;11.190;2023-01-16T01:43:10;-2.90;99.90
16929;DHT22;8581;47.334;11.190;2023-01-16T01:45:41;-2.90;99.90
16929;DHT22;8581;47.334;11.190;2023-01-16T01:48:26;-2.90;99.90
16929;DHT22;8581;47.334;11.190;2023-01-16T01:50:59;-2.90;99.90
16929;DHT22;8581;47.334;11.190;2023-01-16T01:53:33;-2.90;99.90
16929;DHT22;8581;47.334;11.190;2023-01-16T01:56:16;-2.80;99.90
16929;DHT22;8581;47.334;11.190;2023-01-16T01:58:49;-2.70;99.90
16929;DHT22;8581;47.334;11.190;2023-01-16T02:01:20;-2.70;99.90
16929;DHT22;8581;47.334;11.190;2023-01-16T02:03:54;-2.70;99.90
16929;DHT22;8581;47.334;11.190;2023-01-16T02:06:37;-2.60;99.90
16929;DHT22;8581;47.334;11.190;2023-01-16T02:09:06;-2.60;99.90
16929;DHT22;8581;47.334;11.190;2023-01-16T02:11:41;-2.70;99.90
16929;DHT22;8581;47.334;11.190;2023-01-16T02:14:12;-2.90;99.90
16929;DHT22;8581;47.334;11.190;2023-01-16T02:16:43;-2.90;99.90
16929;DHT22;8581;47.334;11.190;2023-01-16T02:19:43;-2.90;99.90
16929;DHT22;8581;47.334;11.190;2023-01-16T02:25:48;-2.90;99.90
16929;DHT22;8581;47.334;11.190;2023-01-16T02:28:42;-3.00;99.90
16929;DHT22;8581;47.334;11.190;2023-01-16T02:32:22;-3.10;99.90
16929;DHT22;8581;47.334;11.190;2023-01-16T02:34:12;-3.10;99.90
16929;DHT22;8581;47.334;11.190;2023-01-16T02:36:56;-3.10;99.90
16929;DHT22;8581;47.334;11.190;2023-01-16T02:39:35;-3.20;99.90
16929;DHT22;8581;47.334;11.190;2023-01-16T02:42:23;-3.20;99.90
16929;DHT22;8581;47.334;11.190;2023-01-16T02:47:54;-3.00;99.90
16929;DHT22;8581;47.334;11.190;2023-01-16T02:50:28;-3.00;99.90
16929;DHT22;8581;47.334;11.190;2023-01-16T02:53:00;-3.10;99.90
16929;DHT22;8581;47.334;11.190;2023-01-16T02:55:37;-3.30;99.90
16929;DHT22;8581;47.334;11.190;2023-01-16T02:58:06;-3.30;99.90
16929;DHT22;8581;47.334;11.190;2023-01-16T03:00:38;-3.40;99.90
16929;DHT22;8581;47.334;11.190;2023-01-16T03:03:17;-3.50;99.90
16929;DHT22;8581;47.334;11.190;2023-01-16T03:05:42;-3.60;99.90
16929;DHT22;8581;47.334;11.190;2023-01-16T03:08:23;-3.60;99.90
16929;DHT22;8581;47.334;11.190;2023-01-16T03:11:09;-3.60;99.90
16929;DHT22;8581;47.334;11.190;2023-01-16T03:16:51;-3.80;99.90
16929;DHT22;8581;47.334;11.190;2023-01-16T03:19:41;-3.50;99.90
16929;DHT22;8581;47.334;11.190;2023-01-16T03:22:15;-3.40;99.90
16929;DHT22;8581;47.334;11.190;2023-01-16T03:24:56;-3.60;99.90
16929;DHT22;8581;47.334;11.190;2023-01-16T03:27:44;-3.50;99.90
16929;DHT22;8581;47.334;11.190;2023-01-16T03:30:18;-3.50;99.90
16929;DHT22;8581;47.334;11.190;2023-01-16T03:32:50;-3.50;99.90
16929;DHT22;8581;47.334;11.190;2023-01-16T03:35:21;-3.40;99.90
16929;DHT22;8581;47.334;11.190;2023-01-16T03:37:54;-3.70;99.90
16929;DHT22;8581;47.334;11.190;2023-01-16T03:40:26;-3.80;99.90
16929;DHT22;8581;47.334;11.190;2023-01-16T03:43:01;-3.80;99.90
16929;DHT22;8581;47.334;11.190;2023-01-16T03:45:34;-4.00;99.90
16929;DHT22;8581;47.334;11.190;2023-01-16T03:48:08;-4.00;99.90
16929;DHT22;8581;47.334;11.190;2023-01-16T03:50:37;-4.00;99.90
16929;DHT22;8581;47.334;11.190;2023-01-16T03:53:10;-4.00;99.90
16929;DHT22;8581;47.334;11.190;2023-01-16T03:55:43;-4.00;99.90
16929;DHT22;8581;47.334;11.190;2023-01-16T03:58:17;-3.80;99.90
16929;DHT22;8581;47.334;11.190;2023-01-16T04:00:49;-3.90;99.90
16929;DHT22;8581;47.334;11.190;2023-01-16T04:03:22;-4.00;99.90
16929;DHT22;8581;47.334;11.190;2023-01-16T04:06:25;-3.90;99.90
16929;DHT22;8581;47.334;11.190;2023-01-16T04:08:54;-3.80;99.90
16929;DHT22;8581;47.334;11.190;2023-01-16T04:11:26;-3.90;99.90
16929;DHT22;8581;47.334;11.190;2023-01-16T04:13:58;-3.90;99.90
16929;DHT22;8581;47.334;11.190;2023-01-16T04:16:29;-3.70;99.90
16929;DHT22;8581;47.334;11.190;2023-01-16T04:19:01;-3.80;99.90
16929;DHT22;8581;47.334;11.190;2023-01-16T04:21:32;-3.80;99.90
16929;DHT22;8581;47.334;11.190;2023-01-16T04:24:04;-3.80;99.90
16929;DHT22;8581;47.334;11.190;2023-01-16T04:26:36;-3.70;99.90
16929;DHT22;8581;47.334;11.190;2023-01-16T04:29:08;-3.70;99.90
16929;DHT22;8581;47.334;11.190;2023-01-16T04:31:39;-3.80;99.90
16929;DHT22;8581;47.334;11.190;2023-01-16T04:34:11;-3.70;99.90
16929;DHT22;8581;47.334;11.190;2023-01-16T04:36:42;-3.60;99.90
16929;DHT22;8581;47.334;11.190;2023-01-16T04:39:14;-3.50;99.90
16929;DHT22;8581;47.334;11.190;2023-01-16T04:41:46;-3.50;99.90
16929;DHT22;8581;47.334;11.190;2023-01-16T04:44:17;-3.50;99.90
16929;DHT22;8581;47.334;11.190;2023-01-16T04:46:49;-3.40;99.90
16929;DHT22;8581;47.334;11.190;2023-01-16T04:49:20;-3.30;99.90
16929;DHT22;8581;47.334;11.190;2023-01-16T04:51:52;-3.20;99.90
16929;DHT22;8581;47.334;11.190;2023-01-16T04:54:24;-3.20;99.90
16929;DHT22;8581;47.334;11.190;2023-01-16T04:56:55;-2.90;99.90
16929;DHT22;8581;47.334;11.190;2023-01-16T04:59:27;-2.90;99.90
16929;DHT22;8581;47.334;11.190;2023-01-16T05:01:59;-2.80;99.90
16929;DHT22;8581;47.334;11.190;2023-01-16T05:04:30;-2.70;99.90
16929;DHT22;8581;47.334;11.190;2023-01-16T05:07:02;-2.70;99.90
16929;DHT22;8581;47.334;11.190;2023-01-16T05:09:33;-2.60;99.90
16929;DHT22;8581;47.334;11.190;2023-01-16T05:12:06;-2.50;99.90
16929;DHT22;8581;47.334;11.190;2023-01-16T05:14:37;-2.20;99.90
16929;DHT22;8581;47.334;11.190;2023-01-16T05:17:09;-2.20;99.90
16929;DHT22;8581;47.334;11.190;2023-01-16T05:19:40;-2.00;99.90
16929;DHT22;8581;47.334;11.190;2023-01-16T05:22:12;-1.90;99.90
16929;DHT22;8581;47.334;11.190;2023-01-16T05:24:44;-1.60;99.90
16929;DHT22;8581;47.334;11.190;2023-01-16T05:27:15;-1.70;99.90
16929;DHT22;8581;47.334;11.190;2023-01-16T05:29:47;-1.50;99.90
16929;DHT22;8581;47.334;11.190;2023-01-16T05:32:18;-1.50;99.90
16929;DHT22;8581;47.334;11.190;2023-01-16T05:34:50;-1.50;99.90
16929;DHT22;8581;47.334;11.190;2023-01-16T05:37:21;-1.60;99.90
16929;DHT22;8581;47.334;11.190;2023-01-16T05:39:53;-1.70;99.90
16929;DHT22;8581;47.334;11.190;2023-01-16T05:42:25;-1.70;99.90
16929;DHT22;8581;47.334;11.190;2023-01-16T05:44:56;-1.60;99.90
16929;DHT22;8581;47.334;11.190;2023-01-16T05:47:28;-1.60;99.90
16929;DHT22;8581;47.334;11.190;2023-01-16T05:49:59;-1.60;99.90
16929;DHT22;8581;47.334;11.190;2023-01-16T05:52:38;-1.50;99.90
16929;DHT22;8581;47.334;11.190;2023-01-16T05:55:10;-1.30;99.90
16929;DHT22;8581;47.334;11.190;2023-01-16T05:57:44;-1.50;99.90
16929;DHT22;8581;47.334;11.190;2023-01-16T06:00:17;-1.50;99.90
16929;DHT22;8581;47.334;11.190;2023-01-16T06:02:48;-1.50;99.90
16929;DHT22;8581;47.334;11.190;2023-01-16T06:05:20;-1.50;99.90
16929;DHT22;8581;47.334;11.190;2023-01-16T06:07:54;-1.60;99.90
16929;DHT22;8581;47.334;11.190;2023-01-16T06:10:25;-1.50;99.90
16929;DHT22;8581;47.334;11.190;2023-01-16T06:12:57;-1.40;99.90
16929;DHT22;8581;47.334;11.190;2023-01-16T06:15:28;-1.30;99.90
16929;DHT22;8581;47.334;11.190;2023-01-16T06:18:00;-1.30;99.90
16929;DHT22;8581;47.334;11.190;2023-01-16T06:20:32;-1.20;99.90
16929;DHT22;8581;47.334;11.190;2023-01-16T06:23:03;-1.20;99.90
16929;DHT22;8581;47.334;11.190;2023-01-16T06:25:36;-1.20;99.90
16929;DHT22;8581;47.334;11.190;2023-01-16T06:28:08;-1.10;99.90
16929;DHT22;8581;47.334;11.190;2023-01-16T06:30:39;-1.20;99.90
16929;DHT22;8581;47.334;11.190;2023-01-16T06:33:11;-1.20;99.90
16929;DHT22;8581;47.334;11.190;2023-01-16T06:35:42;-1.40;99.90
16929;DHT22;8581;47.334;11.190;2023-01-16T06:38:14;-1.40;99.90
16929;DHT22;8581;47.334;11.190;2023-01-16T06:40:46;-1.50;99.90
16929;DHT22;8581;47.334;11.190;2023-01-16T06:43:17;-1.60;99.90
16929;DHT22;8581;47.334;11.190;2023-01-16T06:45:49;-1.50;99.90
16929;DHT22;8581;47.334;11.190;2023-01-16T06:48:21;-1.40;99.90
16929;DHT22;8581;47.334;11.190;2023-01-16T06:50:52;-1.40;99.90
16929;DHT22;8581;47.334;11.190;2023-01-16T06:53:25;-1.50;99.90
16929;DHT22;8581;47.334;11.190;2023-01-16T06:55:56;-1.50;99.90
16929;DHT22;8581;47.334;11.190;2023-01-16T06:58:28;-1.40;99.90
16929;DHT22;8581;47.334;11.190;2023-01-16T07:00:59;-1.40;99.90
16929;DHT22;8581;47.334;11.190;2023-01-16T07:03:31;-1.40;99.90
16929;DHT22;8581;47.334;11.190;2023-01-16T07:06:03;-1.30;99.90
16929;DHT22;8581;47.334;11.190;2023-01-16T07:08:34;-1.40;99.90
16929;DHT22;8581;47.334;11.190;2023-01-16T07:11:06;-1.40;99.90
16929;DHT22;8581;47.334;11.190;2023-01-16T07:13:38;-1.40;99.90
16929;DHT22;8581;47.334;11.190;2023-01-16T07:16:10;-1.60;99.90
16929;DHT22;8581;47.334;11.190;2023-01-16T07:18:47;-1.60;99.90
16929;DHT22;8581;47.334;11.190;2023-01-16T07:21:36;-1.50;99.90
16929;DHT22;8581;47.334;11.190;2023-01-16T07:24:14;-1.40;99.90
16929;DHT22;8581;47.334;11.190;2023-01-16T07:26:45;-1.20;99.90
16929;DHT22;8581;47.334;11.190;2023-01-16T07:29:16;-1.10;99.90
16929;DHT22;8581;47.334;11.190;2023-01-16T07:31:48;-1.00;99.90
16929;DHT22;8581;47.334;11.190;2023-01-16T07:34:19;-1.10;99.90
16929;DHT22;8581;47.334;11.190;2023-01-16T07:36:51;-1.00;99.90
16929;DHT22;8581;47.334;11.190;2023-01-16T07:39:23;-1.00;99.90
16929;DHT22;8581;47.334;11.190;2023-01-16T07:41:54;-0.90;99.90
16929;DHT22;8581;47.334;11.190;2023-01-16T07:44:26;-0.90;99.90
16929;DHT22;8581;47.334;11.190;2023-01-16T07:46:57;-0.90;99.90
16929;DHT22;8581;47.334;11.190;2023-01-16T07:49:29;-0.90;99.90
16929;DHT22;8581;47.334;11.190;2023-01-16T07:52:01;-0.90;99.90
16929;DHT22;8581;47.334;11.190;2023-01-16T07:54:32;-0.80;99.90
16929;DHT22;8581;47.334;11.190;2023-01-16T07:57:04;-0.80;99.90
16929;DHT22;8581;47.334;11.190;2023-01-16T07:59:35;-0.90;99.90
16929;DHT22;8581;47.334;11.190;2023-01-16T08:02:08;-0.90;99.90
16929;DHT22;8581;47.334;11.190;2023-01-16T08:04:39;-1.00;99.90
16929;DHT22;8581;47.334;11.190;2023-01-16T08:07:10;-1.00;99.90
16929;DHT22;8581;47.334;11.190;2023-01-16T08:09:42;-1.10;99.90
16929;DHT22;8581;47.334;11.190;2023-01-16T08:12:13;-1.20;99.90
16929;DHT22;8581;47.334;11.190;2023-01-16T08:14:45;-1.20;99.90
16929;DHT22;8581;47.334;11.190;2023-01-16T08:17:17;-1.20;99.90
16929;DHT22;8581;47.334;11.190;2023-01-16T08:19:48;-1.40;99.90
16929;DHT22;8581;47.334;11.190;2023-01-16T08:22:20;-1.10;99.90
16929;DHT22;8581;47.334;11.190;2023-01-16T08:24:51;-1.10;99.90
16929;DHT22;8581;47.334;11.190;2023-01-16T08:27:23;-1.10;99.90
16929;DHT22;8581;47.334;11.190;2023-01-16T08:29:55;-1.00;99.90
16929;DHT22;8581;47.334;11.190;2023-01-16T08:32:26;-1.00;99.90
16929;DHT22;8581;47.334;11.190;2023-01-16T08:34:58;-1.00;99.90
16929;DHT22;8581;47.334;11.190;2023-01-16T08:37:30;-1.10;99.90
16929;DHT22;8581;47.334;11.190;2023-01-16T08:40:02;-1.20;99.90
16929;DHT22;8581;47.334;11.190;2023-01-16T08:42:34;-1.00;99.90
16929;DHT22;8581;47.334;11.190;2023-01-16T08:45:11;-0.90;99.90
16929;DHT22;8581;47.334;11.190;2023-01-16T08:47:48;-0.70;99.90
16929;DHT22;8581;47.334;11.190;2023-01-16T08:50:26;-0.40;99.90
16929;DHT22;8581;47.334;11.190;2023-01-16T08:53:03;-0.50;99.90
16929;DHT22;8581;47.334;11.190;2023-01-16T08:55:35;-0.60;99.90
16929;DHT22;8581;47.334;11.190;2023-01-16T08:58:06;-0.80;99.90
16929;DHT22;8581;47.334;11.190;2023-01-16T09:00:38;-0.70;99.90
16929;DHT22;8581;47.334;11.190;2023-01-16T09:03:09;-0.60;99.90
16929;DHT22;8581;47.334;11.190;2023-01-16T09:05:41;-0.30;99.90
16929;DHT22;8581;47.334;11.190;2023-01-16T09:08:13;-0.10;99.90
16929;DHT22;8581;47.334;11.190;2023-01-16T09:10:44;-0.20;99.90
16929;DHT22;8581;47.334;11.190;2023-01-16T09:13:16;-0.20;99.90
16929;DHT22;8581;47.334;11.190;2023-01-16T09:15:53;-0.10;99.90
16929;DHT22;8581;47.334;11.190;2023-01-16T09:18:25;0.10;99.90
16929;DHT22;8581;47.334;11.190;2023-01-16T09:20:56;0.30;99.90
16929;DHT22;8581;47.334;11.190;2023-01-16T09:23:28;0.30;99.90
16929;DHT22;8581;47.334;11.190;2023-01-16T09:25:59;0.80;99.90
16929;DHT22;8581;47.334;11.190;2023-01-16T09:28:31;0.30;99.90
16929;DHT22;8581;47.334;11.190;2023-01-16T09:31:03;0.10;99.90
16929;DHT22;8581;47.334;11.190;2023-01-16T09:33:34;0.30;99.90
16929;DHT22;8581;47.334;11.190;2023-01-16T09:36:06;0.40;99.90
16929;DHT22;8581;47.334;11.190;2023-01-16T09:38:38;0.70;99.90
16929;DHT22;8581;47.334;11.190;2023-01-16T09:41:13;1.20;99.90
16929;DHT22;8581;47.334;11.190;2023-01-16T09:43:43;1.40;99.90
16929;DHT22;8581;47.334;11.190;2023-01-16T09:46:17;1.60;99.90
16929;DHT22;8581;47.334;11.190;2023-01-16T09:49:22;1.60;99.90
16929;DHT22;8581;47.334;11.190;2023-01-16T09:51:39;1.70;99.90
16929;DHT22;8581;47.334;11.190;2023-01-16T09:54:11;1.70;99.90
16929;DHT22;8581;47.334;11.190;2023-01-16T09:57:01;1.90;99.90
16929;DHT22;8581;47.334;11.190;2023-01-16T09:59:41;2.00;99.90
16929;DHT22;8581;47.334;11.190;2023-01-16T10:02:20;2.00;99.90
16929;DHT22;8581;47.334;11.190;2023-01-16T10:04:50;2.30;99.90
16929;DHT22;8581;47.334;11.190;2023-01-16T10:11:28;2.40;99.90
16929;DHT22;8581;47.334;11.190;2023-01-16T10:18:49;2.60;99.90
16929;DHT22;8581;47.334;11.190;2023-01-16T10:21:29;2.80;99.90
16929;DHT22;8581;47.334;11.190;2023-01-16T10:24:01;2.90;99.90
16929;DHT22;8581;47.334;11.190;2023-01-16T10:26:51;3.10;99.90
16929;DHT22;8581;47.334;11.190;2023-01-16T10:29:21;3.30;99.90
16929;DHT22;8581;47.334;11.190;2023-01-16T10:31:56;3.50;99.90
16929;DHT22;8581;47.334;11.190;2023-01-16T10:34:40;3.60;99.90
16929;DHT22;8581;47.334;11.190;2023-01-16T10:37:10;3.80;99.90
16929;DHT22;8581;47.334;11.190;2023-01-16T10:39:42;3.90;99.90
16929;DHT22;8581;47.334;11.190;2023-01-16T10:42:14;3.90;99.90
16929;DHT22;8581;47.334;11.190;2023-01-16T10:44:55;3.70;99.90
16929;DHT22;8581;47.334;11.190;2023-01-16T10:47:29;4.00;99.90
16929;DHT22;8581;47.334;11.190;2023-01-16T10:50:07;3.80;99.90
16929;DHT22;8581;47.334;11.190;2023-01-16T10:52:38;3.90;99.90
16929;DHT22;8581;47.334;11.190;2023-01-16T10:55:09;4.10;99.90
16929;DHT22;8581;47.334;11.190;2023-01-16T10:57:44;4.70;99.90
16929;DHT22;8581;47.334;11.190;2023-01-16T11:00:19;5.10;99.90
16929;DHT22;8581;47.334;11.190;2023-01-16T11:02:50;5.20;99.90
16929;DHT22;8581;47.334;11.190;2023-01-16T11:05:32;5.30;99.90
16929;DHT22;8581;47.334;11.190;2023-01-16T11:08:18;5.50;99.90
16929;DHT22;8581;47.334;11.190;2023-01-16T11:10:48;5.40;99.90
16929;DHT22;8581;47.334;11.190;2023-01-16T11:13:21;5.00;99.90
16929;DHT22;8581;47.334;11.190;2023-01-16T11:16:00;5.40;99.90
16929;DHT22;8581;47.334;11.190;2023-01-16T11:18:37;5.50;99.90
16929;DHT22;8581;47.334;11.190;2023-01-16T11:21:15;5.30;99.90
16929;DHT22;8581;47.334;11.190;2023-01-16T11:23:47;5.10;99.90
16929;DHT22;8581;47.334;11.190;2023-01-16T11:26:17;5.20;99.90
16929;DHT22;8581;47.334;11.190;2023-01-16T11:28:49;5.70;99.90
16929;DHT22;8581;47.334;11.190;2023-01-16T11:31:21;6.20;99.90
16929;DHT22;8581;47.334;11.190;2023-01-16T11:33:53;6.40;99.90
16929;DHT22;8581;47.334;11.190;2023-01-16T11:36:25;6.20;99.90
16929;DHT22;8581;47.334;11.190;2023-01-16T11:38:56;6.10;99.90
16929;DHT22;8581;47.334;11.190;2023-01-16T11:41:31;6.30;99.90
16929;DHT22;8581;47.334;11.190;2023-01-16T11:46:49;6.50;99.90
16929;DHT22;8581;47.334;11.190;2023-01-16T11:49:23;7.20;99.90
16929;DHT22;8581;47.334;11.190;2023-01-16T11:51:52;7.10;99.90
16929;DHT22;8581;47.334;11.190;2023-01-16T11:54:27;6.00;99.90
16929;DHT22;8581;47.334;11.190;2023-01-16T11:57:06;5.70;99.90
16929;DHT22;8581;47.334;11.190;2023-01-16T11:59:59;5.90;99.90
16929;DHT22;8581;47.334;11.190;2023-01-16T12:02:51;6.00;99.90
16929;DHT22;8581;47.334;11.190;2023-01-16T12:05:28;6.90;99.90
16929;DHT22;8581;47.334;11.190;2023-01-16T12:08:08;7.00;99.90
16929;DHT22;8581;47.334;11.190;2023-01-16T12:13:26;5.70;99.90
16929;DHT22;8581;47.334;11.190;2023-01-16T12:16:06;4.80;99.90
16929;DHT22;8581;47.334;11.190;2023-01-16T12:21:31;5.00;99.90
16929;DHT22;8581;47.334;11.190;2023-01-16T12:24:21;5.20;99.90
16929;DHT22;8581;47.334;11.190;2023-01-16T12:27:00;4.80;99.90
16929;DHT22;8581;47.334;11.190;2023-01-16T12:29:36;5.10;99.90
16929;DHT22;8581;47.334;11.190;2023-01-16T12:35:00;5.60;99.90
16929;DHT22;8581;47.334;11.190;2023-01-16T12:37:54;5.70;99.90
16929;DHT22;8581;47.334;11.190;2023-01-16T12:40:44;5.30;99.90
16929;DHT22;8581;47.334;11.190;2023-01-16T12:43:22;5.20;99.90
16929;DHT22;8581;47.334;11.190;2023-01-16T12:45:54;4.80;99.90
16929;DHT22;8581;47.334;11.190;2023-01-16T12:51:20;4.50;99.90
16929;DHT22;8581;47.334;11.190;2023-01-16T12:57:08;4.60;99.90
16929;DHT22;8581;47.334;11.190;2023-01-16T12:59:44;4.90;99.90
16929;DHT22;8581;47.334;11.190;2023-01-16T13:02:21;4.80;99.90
16929;DHT22;8581;47.334;11.190;2023-01-16T13:04:51;5.30;99.90
16929;DHT22;8581;47.334;11.190;2023-01-16T13:07:21;5.50;99.90
16929;DHT22;8581;47.334;11.190;2023-01-16T13:09:59;6.00;99.90
16929;DHT22;8581;47.334;11.190;2023-01-16T13:12:29;6.00;99.90
16929;DHT22;8581;47.334;11.190;2023-01-16T13:15:09;6.00;99.90
16929;DHT22;8581;47.334;11.190;2023-01-16T13:17:48;6.50;99.90
16929;DHT22;8581;47.334;11.190;2023-01-16T13:20:18;6.50;99.90
16929;DHT22;8581;47.334;11.190;2023-01-16T13:22:57;5.90;99.90
16929;DHT22;8581;47.334;11.190;2023-01-16T13:25:34;5.90;99.90
16929;DHT22;8581;47.334;11.190;2023-01-16T13:30:45;5.70;99.90
16929;DHT22;8581;47.334;11.190;2023-01-16T13:33:17;5.30;99.90
16929;DHT22;8581;47.334;11.190;2023-01-16T13:35:54;5.20;99.90
16929;DHT22;8581;47.334;11.190;2023-01-16T13:38:44;5.30;99.90
16929;DHT22;8581;47.334;11.190;2023-01-16T13:41:23;4.80;99.90
16929;DHT22;8581;47.334;11.190;2023-01-16T13:44:03;5.10;99.90
16929;DHT22;8581;47.334;11.190;2023-01-16T13:46:38;4.50;99.90
16929;DHT22;8581;47.334;11.190;2023-01-16T13:49:12;4.10;99.90
16929;DHT22;8581;47.334;11.190;2023-01-16T13:51:42;4.00;99.90
16929;DHT22;8581;47.334;11.190;2023-01-16T13:54:17;4.10;99.90
16929;DHT22;8581;47.334;11.190;2023-01-16T13:56:57;3.70;99.90
16929;DHT22;8581;47.334;11.190;2023-01-16T13:59:45;3.60;99.90
16929;DHT22;8581;47.334;11.190;2023-01-16T14:05:17;4.20;99.90
16929;DHT22;8581;47.334;11.190;2023-01-16T14:07:49;3.90;99.90
16929;DHT22;8581;47.334;11.190;2023-01-16T14:10:25;3.80;99.90
16929;DHT22;8581;47.334;11.190;2023-01-16T14:13:12;3.40;99.90
16929;DHT22;8581;47.334;11.190;2023-01-16T14:15:47;3.50;99.90
16929;DHT22;8581;47.334;11.190;2023-01-16T14:18:21;3.70;99.90
16929;DHT22;8581;47.334;11.190;2023-01-16T14:21:00;3.50;99.90
16929;DHT22;8581;47.334;11.190;2023-01-16T14:23:25;3.50;99.90
16929;DHT22;8581;47.334;11.190;2023-01-16T14:26:02;3.60;99.90
16929;DHT22;8581;47.334;11.190;2023-01-16T14:28:33;3.40;99.90
16929;DHT22;8581;47.334;11.190;2023-01-16T14:31:05;3.20;99.90
16929;DHT22;8581;47.334;11.190;2023-01-16T14:33:36;3.10;99.90
16929;DHT22;8581;47.334;11.190;2023-01-16T14:36:09;3.20;99.90
16929;DHT22;8581;47.334;11.190;2023-01-16T14:38:43;3.30;99.90
16929;DHT22;8581;47.334;11.190;2023-01-16T14:41:14;3.00;99.90
16929;DHT22;8581;47.334;11.190;2023-01-16T14:46:49;3.10;99.90
16929;DHT22;8581;47.334;11.190;2023-01-16T14:52:08;3.30;99.90
16929;DHT22;8581;47.334;11.190;2023-01-16T14:54:45;3.10;99.90
16929;DHT22;8581;47.334;11.190;2023-01-16T14:57:23;3.00;99.90
16929;DHT22;8581;47.334;11.190;2023-01-16T15:00:10;2.90;99.90
16929;DHT22;8581;47.334;11.190;2023-01-16T15:03:00;2.90;99.90
16929;DHT22;8581;47.334;11.190;2023-01-16T15:05:33;2.90;99.90
16929;DHT22;8581;47.334;11.190;2023-01-16T15:08:10;2.70;99.90
16929;DHT22;8581;47.334;11.190;2023-01-16T15:10:41;2.80;99.90
16929;DHT22;8581;47.334;11.190;2023-01-16T15:13:15;2.70;99.90
16929;DHT22;8581;47.334;11.190;2023-01-16T15:15:48;2.40;99.90
16929;DHT22;8581;47.334;11.190;2023-01-16T15:18:19;2.40;99.90
16929;DHT22;8581;47.334;11.190;2023-01-16T15:20:56;2.30;99.90
16929;DHT22;8581;47.334;11.190;2023-01-16T15:23:42;2.10;99.90
16929;DHT22;8581;47.334;11.190;2023-01-16T15:26:36;2.10;99.90
16929;DHT22;8581;47.334;11.190;2023-01-16T15:29:19;2.10;99.90
16929;DHT22;8581;47.334;11.190;2023-01-16T15:31:56;2.00;99.90
16929;DHT22;8581;47.334;11.190;2023-01-16T15:34:28;2.00;99.90
16929;DHT22;8581;47.334;11.190;2023-01-16T15:37:00;1.90;99.90
16929;DHT22;8581;47.334;11.190;2023-01-16T15:39:40;1.70;99.90
16929;DHT22;8581;47.334;11.190;2023-01-16T15:42:15;1.50;99.90
16929;DHT22;8581;47.334;11.190;2023-01-16T15:44:51;1.30;99.90
16929;DHT22;8581;47.334;11.190;2023-01-16T15:50:20;1.10;99.90
16929;DHT22;8581;47.334;11.190;2023-01-16T15:52:49;1.10;99.90
16929;DHT22;8581;47.334;11.190;2023-01-16T15:55:22;1.00;99.90
16929;DHT22;8581;47.334;11.190;2023-01-16T15:57:54;0.90;99.90
16929;DHT22;8581;47.334;11.190;2023-01-16T16:00:28;0.70;99.90
16929;DHT22;8581;47.334;11.190;2023-01-16T16:03:00;0.60;99.90
16929;DHT22;8581;47.334;11.190;2023-01-16T16:05:30;0.40;99.90
16929;DHT22;8581;47.334;11.190;2023-01-16T16:08:02;0.20;99.90
16929;DHT22;8581;47.334;11.190;2023-01-16T16:10:34;0.30;99.90
16929;DHT22;8581;47.334;11.190;2023-01-16T16:13:12;0.10;99.90
16929;DHT22;8581;47.334;11.190;2023-01-16T16:15:55;0.10;99.90
16929;DHT22;8581;47.334;11.190;2023-01-16T16:18:31;0.10;99.90
16929;DHT22;8581;47.334;11.190;2023-01-16T16:21:05;0.10;99.90
16929;DHT22;8581;47.334;11.190;2023-01-16T16:23:37;0.00;99.90
16929;DHT22;8581;47.334;11.190;2023-01-16T16:26:10;-0.10;99.90
16929;DHT22;8581;47.334;11.190;2023-01-16T16:28:40;0.00;99.90
16929;DHT22;8581;47.334;11.190;2023-01-16T16:31:28;-0.10;99.90
16929;DHT22;8581;47.334;11.190;2023-01-16T16:34:02;-0.10;99.90
16929;DHT22;8581;47.334;11.190;2023-01-16T16:36:37;-0.10;99.90
16929;DHT22;8581;47.334;11.190;2023-01-16T16:41:47;-0.30;99.90
16929;DHT22;8581;47.334;11.190;2023-01-16T16:44:32;-0.50;99.90
16929;DHT22;8581;47.334;11.190;2023-01-16T16:46:56;-0.50;99.90
16929;DHT22;8581;47.334;11.190;2023-01-16T16:49:29;-0.50;99.90
16929;DHT22;8581;47.334;11.190;2023-01-16T16:52:44;-0.60;99.90
16929;DHT22;8581;47.334;11.190;2023-01-16T16:54:59;-0.60;99.90
16929;DHT22;8581;47.334;11.190;2023-01-16T16:57:34;-0.50;99.90
16929;DHT22;8581;47.334;11.190;2023-01-16T17:00:02;-0.60;99.90
16929;DHT22;8581;47.334;11.190;2023-01-16T17:02:34;-0.70;99.90
16929;DHT22;8581;47.334;11.190;2023-01-16T17:05:10;-0.70;99.90
16929;DHT22;8581;47.334;11.190;2023-01-16T17:07:39;-0.70;99.90
16929;DHT22;8581;47.334;11.190;2023-01-16T17:10:12;-0.80;99.90
16929;DHT22;8581;47.334;11.190;2023-01-16T17:12:42;-0.80;99.90
16929;DHT22;8581;47.334;11.190;2023-01-16T17:15:14;-1.00;99.90